TimeCDT,TemperatureF,Dew PointF,Humidity,Sea Level PressureIn,VisibilityMPH,Wind Direction,Wind SpeedMPH,Gust SpeedMPH,PrecipitationIn,Events,Conditions,WindDirDegrees,DateUTC
12:15 AM,64.4,60.8,88,29.92,10.0,NNW,3.5,-,N/A,,Clear,330,2013-09-02 05:15:00
12:35 AM,64.4,60.8,88,29.91,10.0,NNW,4.6,-,N/A,,Clear,330,2013-09-02 05:35:00
12:55 AM,64.4,60.8,88,29.91,10.0,NW,3.5,-,N/A,,Clear,320,2013-09-02 05:55:00
1:15 AM,64.4,60.8,88,29.92,10.0,NW,3.5,-,N/A,,Clear,320,2013-09-02 06:15:00
1:35 AM,64.4,60.8,88,29.92,10.0,Calm,Calm,-,N/A,,Clear,0,2013-09-02 06:35:00
1:55 AM,62.6,60.8,94,29.92,10.0,NW,3.5,-,N/A,,Clear,310,2013-09-02 06:55:00
2:15 AM,62.6,60.8,94,29.92,10.0,NW,4.6,-,N/A,,Clear,310,2013-09-02 07:15:00
2:35 AM,62.6,60.8,94,29.92,10.0,NW,3.5,-,N/A,,Clear,320,2013-09-02 07:35:00
2:55 AM,60.8,60.8,100,29.92,10.0,NW,4.6,-,N/A,,Clear,310,2013-09-02 07:55:00
3:15 AM,60.8,60.8,100,29.92,10.0,WNW,4.6,-,N/A,,Clear,300,2013-09-02 08:15:00
3:35 AM,62.6,60.8,94,29.93,10.0,WNW,5.8,-,N/A,,Clear,300,2013-09-02 08:35:00
3:55 AM,62.6,60.8,94,29.93,10.0,NW,5.8,-,N/A,,Clear,310,2013-09-02 08:55:00
4:15 AM,62.6,60.8,94,29.93,10.0,NW,6.9,-,N/A,,Clear,310,2013-09-02 09:15:00
4:35 AM,62.6,60.8,94,29.94,10.0,WNW,5.8,-,N/A,,Clear,300,2013-09-02 09:35:00
4:55 AM,60.8,60.8,100,29.95,10.0,WNW,6.9,-,N/A,,Clear,300,2013-09-02 09:55:00
5:15 AM,60.8,60.8,100,29.95,10.0,NW,4.6,-,N/A,,Clear,310,2013-09-02 10:15:00
5:35 AM,60.8,60.8,100,29.95,10.0,NW,5.8,-,N/A,,Clear,320,2013-09-02 10:35:00
5:55 AM,60.8,59.0,94,29.96,10.0,NW,4.6,-,N/A,,Clear,320,2013-09-02 10:55:00
6:15 AM,60.8,59.0,94,29.96,10.0,NW,4.6,-,N/A,,Clear,310,2013-09-02 11:15:00
6:35 AM,59.0,59.0,100,29.97,10.0,NW,5.8,-,N/A,,Clear,310,2013-09-02 11:35:00
6:55 AM,59.0,59.0,100,29.97,10.0,NW,5.8,-,N/A,,Clear,310,2013-09-02 11:55:00
7:15 AM,60.8,59.0,94,29.98,10.0,NW,4.6,-,N/A,,Clear,320,2013-09-02 12:15:00
7:35 AM,60.8,60.8,100,29.98,10.0,NNW,6.9,-,N/A,,Clear,330,2013-09-02 12:35:00
7:55 AM,62.6,60.8,94,29.99,10.0,NNW,6.9,-,N/A,,Clear,340,2013-09-02 12:55:00
8:15 AM,64.4,60.8,88,29.99,10.0,NNW,8.1,-,N/A,,Clear,340,2013-09-02 13:15:00
8:35 AM,64.4,60.8,88,29.99,10.0,North,9.2,-,N/A,,Clear,350,2013-09-02 13:35:00
8:55 AM,66.2,60.8,83,30.00,10.0,NNW,9.2,-,N/A,,Clear,340,2013-09-02 13:55:00
9:15 AM,68.0,60.8,78,30.00,10.0,NNW,12.7,-,N/A,,Clear,340,2013-09-02 14:15:00
9:35 AM,69.8,60.8,73,30.01,10.0,NNW,10.4,-,N/A,,Clear,340,2013-09-02 14:35:00
9:55 AM,69.8,60.8,73,30.01,10.0,North,8.1,-,N/A,,Clear,350,2013-09-02 14:55:00
10:15 AM,71.6,60.8,69,30.01,10.0,North,9.2,-,N/A,,Clear,350,2013-09-02 15:15:00
10:35 AM,71.6,60.8,69,30.02,10.0,North,6.9,-,N/A,,Clear,360,2013-09-02 15:35:00
10:55 AM,73.4,60.8,65,30.02,10.0,North,8.1,-,N/A,,Scattered Clouds,350,2013-09-02 15:55:00
11:15 AM,75.2,60.8,61,30.01,10.0,NNW,8.1,-,N/A,,Scattered Clouds,340,2013-09-02 16:15:00
11:35 AM,73.4,60.8,65,30.02,10.0,North,8.1,-,N/A,,Scattered Clouds,360,2013-09-02 16:35:00
11:55 AM,75.2,57.2,53,30.01,10.0,North,6.9,-,N/A,,Mostly Cloudy,360,2013-09-02 16:55:00
12:15 PM,75.2,57.2,53,30.01,10.0,North,10.4,16.1,N/A,,Scattered Clouds,350,2013-09-02 17:15:00
12:35 PM,75.2,57.2,53,30.01,10.0,NNW,9.2,-,N/A,,Scattered Clouds,330,2013-09-02 17:35:00
12:55 PM,77.0,57.2,50,30.01,10.0,NNW,4.6,-,N/A,,Scattered Clouds,330,2013-09-02 17:55:00
1:15 PM,77.0,55.4,47,30.01,10.0,North,8.1,-,N/A,,Scattered Clouds,350,2013-09-02 18:15:00
1:35 PM,78.8,55.4,44,30.00,10.0,NNW,11.5,-,N/A,,Clear,340,2013-09-02 18:35:00
1:55 PM,78.8,55.4,44,30.00,10.0,North,9.2,-,N/A,,Clear,360,2013-09-02 18:55:00
2:15 PM,78.8,53.6,42,30.00,10.0,NW,10.4,16.1,N/A,,Clear,320,2013-09-02 19:15:00
2:35 PM,78.8,51.8,39,29.99,10.0,NW,5.8,9.2,N/A,,Clear,310,2013-09-02 19:35:00
2:55 PM,78.8,51.8,39,29.99,10.0,NNW,6.9,-,N/A,,Clear,330,2013-09-02 19:55:00
3:15 PM,80.6,51.8,37,29.99,10.0,NW,9.2,-,N/A,,Clear,320,2013-09-02 20:15:00
3:35 PM,80.6,51.8,37,29.98,10.0,NNW,12.7,-,N/A,,Clear,340,2013-09-02 20:35:00
3:55 PM,78.8,51.8,39,29.98,10.0,North,10.4,-,N/A,,Clear,360,2013-09-02 20:55:00
4:15 PM,78.8,51.8,39,29.98,10.0,NNW,11.5,-,N/A,,Clear,340,2013-09-02 21:15:00
4:35 PM,78.8,51.8,39,29.97,10.0,North,10.4,-,N/A,,Clear,350,2013-09-02 21:35:00
4:55 PM,78.8,51.8,39,29.97,10.0,NNW,9.2,-,N/A,,Clear,330,2013-09-02 21:55:00
5:15 PM,78.8,51.8,39,29.97,10.0,NW,10.4,-,N/A,,Clear,320,2013-09-02 22:15:00
5:35 PM,78.8,50.0,36,29.97,10.0,North,6.9,-,N/A,,Clear,360,2013-09-02 22:35:00
5:55 PM,78.8,50.0,36,29.98,10.0,North,8.1,-,N/A,,Clear,350,2013-09-02 22:55:00
6:15 PM,77.0,51.8,41,29.97,10.0,North,6.9,-,N/A,,Clear,360,2013-09-02 23:15:00
6:35 PM,75.2,51.8,44,29.97,10.0,North,6.9,-,N/A,,Clear,360,2013-09-02 23:35:00
6:55 PM,75.2,51.8,44,29.97,10.0,North,6.9,-,N/A,,Clear,360,2013-09-02 23:55:00
7:15 PM,73.4,51.8,47,29.98,10.0,North,4.6,-,N/A,,Clear,360,2013-09-03 00:15:00
7:35 PM,69.8,51.8,53,29.98,10.0,North,4.6,-,N/A,,Clear,360,2013-09-03 00:35:00
7:55 PM,68.0,53.6,60,29.99,10.0,North,4.6,-,N/A,,Clear,10,2013-09-03 00:55:00
8:15 PM,66.2,53.6,64,29.99,10.0,North,3.5,-,N/A,,Clear,360,2013-09-03 01:15:00
8:35 PM,64.4,53.6,68,29.99,10.0,North,3.5,-,N/A,,Clear,350,2013-09-03 01:35:00
8:55 PM,62.6,53.6,72,30.00,10.0,North,3.5,-,N/A,,Clear,10,2013-09-03 01:55:00
9:15 PM,60.8,55.4,82,30.01,10.0,Calm,Calm,-,N/A,,Clear,0,2013-09-03 02:15:00
9:35 PM,62.6,53.6,72,30.02,10.0,Calm,Calm,-,N/A,,Clear,0,2013-09-03 02:35:00
9:55 PM,60.8,55.4,82,30.02,10.0,Calm,Calm,-,N/A,,Clear,0,2013-09-03 02:55:00
10:15 PM,60.8,55.4,82,30.02,10.0,North,3.5,-,N/A,,Clear,360,2013-09-03 03:15:00
10:35 PM,60.8,55.4,82,30.02,10.0,North,4.6,-,N/A,,Clear,360,2013-09-03 03:35:00
10:55 PM,60.8,55.4,82,30.02,10.0,North,4.6,-,N/A,,Clear,360,2013-09-03 03:55:00
11:15 PM,60.8,55.4,82,30.03,10.0,North,4.6,-,N/A,,Clear,10,2013-09-03 04:15:00
11:35 PM,60.8,55.4,82,30.03,10.0,NNE,3.5,-,N/A,,Clear,30,2013-09-03 04:35:00
11:55 PM,59.0,55.4,88,30.03,10.0,NNE,3.5,-,N/A,,Clear,30,2013-09-03 04:55:00